Tremont City, Ohio
Current Conditions -  °F | °C
As of 7:56 AM on Thursday 18 Dec 2014 (Local Time) from KSGH Reporting Station
Overcast Overcast  
Wind Chill: 26°   Ceiling: 1800
Heat Index: 26°   Visibility: 8mi
Dew Point: 20°   Wind: 3mph
Humidity: 78%   Direction: 190°S
Pressure: 30.25"   Gusts: NA
Location:  40.01°N, 83.84°W
Report Text: KSGH 181256Z AUTO 19003KT 8SM OVC018 M03/M07 A3025 RMK AO2 T10331066 SLP257
Loading
Personal Weather Stations






























Interactive Weather Map New forecast layout! Learn more

10-Day Weather Forecast

Advertisements
Track Severe Weather on mobile